sensor_id;sensor_type;location;lat;lon;timestamp;temperature;humidity
6538;DHT22;3302;52.508;13.454;2023-07-29T00:00:43;18.50;99.90
6538;DHT22;3302;52.508;13.454;2023-07-29T00:03:09;18.50;99.90
6538;DHT22;3302;52.508;13.454;2023-07-29T00:05:37;18.50;99.90
6538;DHT22;3302;52.508;13.454;2023-07-29T00:08:03;18.40;99.90
6538;DHT22;3302;52.508;13.454;2023-07-29T00:10:31;18.50;99.90
6538;DHT22;3302;52.508;13.454;2023-07-29T00:12:57;18.40;99.90
6538;DHT22;3302;52.508;13.454;2023-07-29T00:15:23;18.40;99.90
6538;DHT22;3302;52.508;13.454;2023-07-29T00:17:49;18.40;99.90
6538;DHT22;3302;52.508;13.454;2023-07-29T00:20:15;18.40;99.90
6538;DHT22;3302;52.508;13.454;2023-07-29T00:22:41;18.30;99.90
6538;DHT22;3302;52.508;13.454;2023-07-29T00:25:07;18.30;99.90
6538;DHT22;3302;52.508;13.454;2023-07-29T00:27:33;18.30;99.90
6538;DHT22;3302;52.508;13.454;2023-07-29T00:29:59;18.20;99.90
6538;DHT22;3302;52.508;13.454;2023-07-29T00:32:26;18.20;99.90
6538;DHT22;3302;52.508;13.454;2023-07-29T00:34:52;18.20;99.90
6538;DHT22;3302;52.508;13.454;2023-07-29T00:37:18;18.10;99.90
6538;DHT22;3302;52.508;13.454;2023-07-29T00:39:47;18.20;99.90
6538;DHT22;3302;52.508;13.454;2023-07-29T00:42:12;18.10;99.90
6538;DHT22;3302;52.508;13.454;2023-07-29T00:44:38;18.10;99.90
6538;DHT22;3302;52.508;13.454;2023-07-29T00:47:05;17.90;99.90
6538;DHT22;3302;52.508;13.454;2023-07-29T00:49:32;17.90;99.90
6538;DHT22;3302;52.508;13.454;2023-07-29T00:51:58;17.90;99.90
6538;DHT22;3302;52.508;13.454;2023-07-29T00:54:24;17.90;99.90
6538;DHT22;3302;52.508;13.454;2023-07-29T00:56:50;17.80;99.90
6538;DHT22;3302;52.508;13.454;2023-07-29T00:59:16;17.90;99.90
6538;DHT22;3302;52.508;13.454;2023-07-29T01:01:42;17.90;99.90
6538;DHT22;3302;52.508;13.454;2023-07-29T01:04:08;17.80;99.90
6538;DHT22;3302;52.508;13.454;2023-07-29T01:06:53;17.80;99.90
6538;DHT22;3302;52.508;13.454;2023-07-29T01:15:06;17.90;99.90
6538;DHT22;3302;52.508;13.454;2023-07-29T01:17:39;17.90;99.90
6538;DHT22;3302;52.508;13.454;2023-07-29T01:20:16;17.90;99.90
6538;DHT22;3302;52.508;13.454;2023-07-29T01:22:43;18.00;99.90
6538;DHT22;3302;52.508;13.454;2023-07-29T01:25:09;17.90;99.90
6538;DHT22;3302;52.508;13.454;2023-07-29T01:27:35;17.90;99.90
6538;DHT22;3302;52.508;13.454;2023-07-29T01:30:02;17.90;99.90
6538;DHT22;3302;52.508;13.454;2023-07-29T01:35:38;17.80;99.90
6538;DHT22;3302;52.508;13.454;2023-07-29T01:38:09;17.80;99.90
6538;DHT22;3302;52.508;13.454;2023-07-29T01:40:37;17.80;99.90
6538;DHT22;3302;52.508;13.454;2023-07-29T01:43:03;17.80;99.90
6538;DHT22;3302;52.508;13.454;2023-07-29T01:45:29;17.80;99.90
6538;DHT22;3302;52.508;13.454;2023-07-29T01:47:57;17.80;99.90
6538;DHT22;3302;52.508;13.454;2023-07-29T01:50:23;17.80;99.90
6538;DHT22;3302;52.508;13.454;2023-07-29T01:52:48;17.60;99.90
6538;DHT22;3302;52.508;13.454;2023-07-29T01:55:14;17.60;99.90
6538;DHT22;3302;52.508;13.454;2023-07-29T01:57:40;17.50;99.90
6538;DHT22;3302;52.508;13.454;2023-07-29T02:00:06;17.50;99.90
6538;DHT22;3302;52.508;13.454;2023-07-29T02:02:33;17.60;99.90
6538;DHT22;3302;52.508;13.454;2023-07-29T02:04:59;17.70;99.90
6538;DHT22;3302;52.508;13.454;2023-07-29T02:07:24;17.70;99.90
6538;DHT22;3302;52.508;13.454;2023-07-29T02:09:52;17.60;99.90
6538;DHT22;3302;52.508;13.454;2023-07-29T02:12:18;17.60;99.90
6538;DHT22;3302;52.508;13.454;2023-07-29T02:14:44;17.60;99.90
6538;DHT22;3302;52.508;13.454;2023-07-29T02:17:10;17.50;99.90
6538;DHT22;3302;52.508;13.454;2023-07-29T02:19:36;17.50;99.90
6538;DHT22;3302;52.508;13.454;2023-07-29T02:22:02;17.50;99.90
6538;DHT22;3302;52.508;13.454;2023-07-29T02:24:28;17.60;99.90
6538;DHT22;3302;52.508;13.454;2023-07-29T02:26:53;17.50;99.90
6538;DHT22;3302;52.508;13.454;2023-07-29T02:29:20;17.40;99.90
6538;DHT22;3302;52.508;13.454;2023-07-29T02:31:46;17.30;99.90
6538;DHT22;3302;52.508;13.454;2023-07-29T02:34:13;17.30;99.90
6538;DHT22;3302;52.508;13.454;2023-07-29T02:36:39;17.30;99.90
6538;DHT22;3302;52.508;13.454;2023-07-29T02:39:05;17.30;99.90
6538;DHT22;3302;52.508;13.454;2023-07-29T02:41:31;17.20;99.90
6538;DHT22;3302;52.508;13.454;2023-07-29T02:43:57;17.30;99.90
6538;DHT22;3302;52.508;13.454;2023-07-29T02:46:23;17.20;99.90
6538;DHT22;3302;52.508;13.454;2023-07-29T02:48:50;17.20;99.90
6538;DHT22;3302;52.508;13.454;2023-07-29T02:51:16;17.10;99.90
6538;DHT22;3302;52.508;13.454;2023-07-29T02:53:41;17.20;99.90
6538;DHT22;3302;52.508;13.454;2023-07-29T02:56:08;17.20;99.90
6538;DHT22;3302;52.508;13.454;2023-07-29T02:58:36;17.20;99.90
6538;DHT22;3302;52.508;13.454;2023-07-29T03:01:04;17.20;99.90
6538;DHT22;3302;52.508;13.454;2023-07-29T03:03:30;17.30;99.90
6538;DHT22;3302;52.508;13.454;2023-07-29T03:06:10;17.40;99.90
6538;DHT22;3302;52.508;13.454;2023-07-29T03:08:36;17.30;99.90
6538;DHT22;3302;52.508;13.454;2023-07-29T03:11:09;17.30;99.90
6538;DHT22;3302;52.508;13.454;2023-07-29T03:13:36;17.30;99.90
6538;DHT22;3302;52.508;13.454;2023-07-29T03:16:10;17.30;99.90
6538;DHT22;3302;52.508;13.454;2023-07-29T03:18:36;17.30;99.90
6538;DHT22;3302;52.508;13.454;2023-07-29T03:21:02;17.30;99.90
6538;DHT22;3302;52.508;13.454;2023-07-29T03:23:29;17.30;99.90
6538;DHT22;3302;52.508;13.454;2023-07-29T03:25:56;17.30;99.90
6538;DHT22;3302;52.508;13.454;2023-07-29T03:28:26;17.30;99.90
6538;DHT22;3302;52.508;13.454;2023-07-29T03:30:53;17.30;99.90
6538;DHT22;3302;52.508;13.454;2023-07-29T03:33:19;17.20;99.90
6538;DHT22;3302;52.508;13.454;2023-07-29T03:35:45;17.20;99.90
6538;DHT22;3302;52.508;13.454;2023-07-29T03:38:11;17.10;99.90
6538;DHT22;3302;52.508;13.454;2023-07-29T03:40:38;17.10;99.90
6538;DHT22;3302;52.508;13.454;2023-07-29T03:43:04;17.00;99.90
6538;DHT22;3302;52.508;13.454;2023-07-29T03:45:30;17.00;99.90
6538;DHT22;3302;52.508;13.454;2023-07-29T03:47:56;16.90;99.90
6538;DHT22;3302;52.508;13.454;2023-07-29T03:50:22;17.00;99.90
6538;DHT22;3302;52.508;13.454;2023-07-29T03:52:48;17.00;99.90
6538;DHT22;3302;52.508;13.454;2023-07-29T03:55:14;17.00;99.90
6538;DHT22;3302;52.508;13.454;2023-07-29T03:57:39;17.00;99.90
6538;DHT22;3302;52.508;13.454;2023-07-29T04:00:06;17.00;99.90
6538;DHT22;3302;52.508;13.454;2023-07-29T04:02:32;17.10;99.90
6538;DHT22;3302;52.508;13.454;2023-07-29T04:04:57;17.00;99.90
6538;DHT22;3302;52.508;13.454;2023-07-29T04:07:23;17.00;99.90
6538;DHT22;3302;52.508;13.454;2023-07-29T04:09:49;16.90;99.90
6538;DHT22;3302;52.508;13.454;2023-07-29T04:12:15;16.90;99.90
6538;DHT22;3302;52.508;13.454;2023-07-29T04:14:41;17.10;99.90
6538;DHT22;3302;52.508;13.454;2023-07-29T04:17:07;17.10;99.90
6538;DHT22;3302;52.508;13.454;2023-07-29T04:19:33;17.10;99.90
6538;DHT22;3302;52.508;13.454;2023-07-29T04:21:59;17.00;99.90
6538;DHT22;3302;52.508;13.454;2023-07-29T04:24:25;17.10;99.90
6538;DHT22;3302;52.508;13.454;2023-07-29T04:26:51;17.20;99.90
6538;DHT22;3302;52.508;13.454;2023-07-29T04:29:16;17.20;99.90
6538;DHT22;3302;52.508;13.454;2023-07-29T04:31:42;17.20;99.90
6538;DHT22;3302;52.508;13.454;2023-07-29T04:34:09;17.40;99.90
6538;DHT22;3302;52.508;13.454;2023-07-29T04:36:34;17.30;99.90
6538;DHT22;3302;52.508;13.454;2023-07-29T04:39:00;17.30;99.90
6538;DHT22;3302;52.508;13.454;2023-07-29T04:41:26;17.30;99.90
6538;DHT22;3302;52.508;13.454;2023-07-29T04:43:52;17.30;99.90
6538;DHT22;3302;52.508;13.454;2023-07-29T04:46:18;17.40;99.90
6538;DHT22;3302;52.508;13.454;2023-07-29T04:48:44;17.30;99.90
6538;DHT22;3302;52.508;13.454;2023-07-29T04:51:09;17.40;99.90
6538;DHT22;3302;52.508;13.454;2023-07-29T04:53:35;17.40;99.90
6538;DHT22;3302;52.508;13.454;2023-07-29T04:56:02;17.40;99.90
6538;DHT22;3302;52.508;13.454;2023-07-29T04:58:28;17.50;99.90
6538;DHT22;3302;52.508;13.454;2023-07-29T05:00:56;17.50;99.90
6538;DHT22;3302;52.508;13.454;2023-07-29T05:03:22;17.50;99.90
6538;DHT22;3302;52.508;13.454;2023-07-29T05:05:47;17.50;99.90
6538;DHT22;3302;52.508;13.454;2023-07-29T05:08:14;17.60;99.90
6538;DHT22;3302;52.508;13.454;2023-07-29T05:10:39;17.70;99.90
6538;DHT22;3302;52.508;13.454;2023-07-29T05:13:05;17.70;99.90
6538;DHT22;3302;52.508;13.454;2023-07-29T05:15:31;17.70;99.90
6538;DHT22;3302;52.508;13.454;2023-07-29T05:17:57;17.70;99.90
6538;DHT22;3302;52.508;13.454;2023-07-29T05:20:23;17.80;99.90
6538;DHT22;3302;52.508;13.454;2023-07-29T05:22:48;17.80;99.90
6538;DHT22;3302;52.508;13.454;2023-07-29T05:25:14;17.90;99.90
6538;DHT22;3302;52.508;13.454;2023-07-29T05:27:40;18.10;99.90
6538;DHT22;3302;52.508;13.454;2023-07-29T05:30:06;18.20;99.90
6538;DHT22;3302;52.508;13.454;2023-07-29T05:32:33;18.40;99.90
6538;DHT22;3302;52.508;13.454;2023-07-29T05:34:58;18.40;99.90
6538;DHT22;3302;52.508;13.454;2023-07-29T05:37:24;18.40;99.90
6538;DHT22;3302;52.508;13.454;2023-07-29T05:39:50;18.40;99.90
6538;DHT22;3302;52.508;13.454;2023-07-29T05:42:16;18.40;99.90
6538;DHT22;3302;52.508;13.454;2023-07-29T05:44:42;18.40;99.90
6538;DHT22;3302;52.508;13.454;2023-07-29T05:47:08;18.40;99.90
6538;DHT22;3302;52.508;13.454;2023-07-29T05:49:34;18.40;99.90
6538;DHT22;3302;52.508;13.454;2023-07-29T05:52:00;18.50;99.90
6538;DHT22;3302;52.508;13.454;2023-07-29T05:54:25;18.60;99.90
6538;DHT22;3302;52.508;13.454;2023-07-29T05:56:51;18.70;99.90
6538;DHT22;3302;52.508;13.454;2023-07-29T05:59:17;18.80;99.90
6538;DHT22;3302;52.508;13.454;2023-07-29T06:01:43;18.70;99.90
6538;DHT22;3302;52.508;13.454;2023-07-29T06:04:08;18.80;99.90
6538;DHT22;3302;52.508;13.454;2023-07-29T06:06:34;18.80;99.90
6538;DHT22;3302;52.508;13.454;2023-07-29T06:09:00;19.00;99.90
6538;DHT22;3302;52.508;13.454;2023-07-29T06:11:26;19.10;99.90
6538;DHT22;3302;52.508;13.454;2023-07-29T06:13:52;19.20;99.90
6538;DHT22;3302;52.508;13.454;2023-07-29T06:16:17;19.20;99.90
6538;DHT22;3302;52.508;13.454;2023-07-29T06:18:43;19.30;99.90
6538;DHT22;3302;52.508;13.454;2023-07-29T06:21:09;19.10;99.90
6538;DHT22;3302;52.508;13.454;2023-07-29T06:23:38;19.10;99.90
6538;DHT22;3302;52.508;13.454;2023-07-29T06:26:04;19.10;99.90
6538;DHT22;3302;52.508;13.454;2023-07-29T06:28:29;19.20;99.90
6538;DHT22;3302;52.508;13.454;2023-07-29T06:30:55;19.30;99.90
6538;DHT22;3302;52.508;13.454;2023-07-29T06:33:21;19.40;99.90
6538;DHT22;3302;52.508;13.454;2023-07-29T06:35:47;19.60;99.90
6538;DHT22;3302;52.508;13.454;2023-07-29T06:38:12;19.70;99.90
6538;DHT22;3302;52.508;13.454;2023-07-29T06:40:38;19.80;99.90
6538;DHT22;3302;52.508;13.454;2023-07-29T06:43:04;19.60;99.90
6538;DHT22;3302;52.508;13.454;2023-07-29T06:45:30;19.50;99.90
6538;DHT22;3302;52.508;13.454;2023-07-29T06:47:55;19.60;99.90
6538;DHT22;3302;52.508;13.454;2023-07-29T06:50:21;19.80;99.90
6538;DHT22;3302;52.508;13.454;2023-07-29T06:52:47;20.00;99.90
6538;DHT22;3302;52.508;13.454;2023-07-29T06:55:13;20.10;99.90
6538;DHT22;3302;52.508;13.454;2023-07-29T06:57:39;20.30;99.90
6538;DHT22;3302;52.508;13.454;2023-07-29T07:00:05;20.30;99.90
6538;DHT22;3302;52.508;13.454;2023-07-29T07:02:31;20.40;99.90
6538;DHT22;3302;52.508;13.454;2023-07-29T07:04:57;20.40;99.90
6538;DHT22;3302;52.508;13.454;2023-07-29T07:07:23;20.40;99.90
6538;DHT22;3302;52.508;13.454;2023-07-29T07:09:48;20.40;99.90
6538;DHT22;3302;52.508;13.454;2023-07-29T07:12:14;20.40;99.90
6538;DHT22;3302;52.508;13.454;2023-07-29T07:14:40;20.40;99.90
6538;DHT22;3302;52.508;13.454;2023-07-29T07:17:06;20.40;99.90
6538;DHT22;3302;52.508;13.454;2023-07-29T07:19:32;20.40;99.90
6538;DHT22;3302;52.508;13.454;2023-07-29T07:21:57;20.40;99.90
6538;DHT22;3302;52.508;13.454;2023-07-29T07:24:23;20.30;99.90
6538;DHT22;3302;52.508;13.454;2023-07-29T07:26:49;20.30;99.90
6538;DHT22;3302;52.508;13.454;2023-07-29T07:29:15;20.40;99.90
6538;DHT22;3302;52.508;13.454;2023-07-29T07:31:53;20.50;99.90
6538;DHT22;3302;52.508;13.454;2023-07-29T07:34:20;20.60;99.90
6538;DHT22;3302;52.508;13.454;2023-07-29T07:36:46;20.70;99.90
6538;DHT22;3302;52.508;13.454;2023-07-29T07:39:12;20.60;99.90
6538;DHT22;3302;52.508;13.454;2023-07-29T07:41:37;20.80;99.90
6538;DHT22;3302;52.508;13.454;2023-07-29T07:44:03;21.00;99.90
6538;DHT22;3302;52.508;13.454;2023-07-29T07:46:29;21.10;99.90
6538;DHT22;3302;52.508;13.454;2023-07-29T07:48:55;21.20;99.90
6538;DHT22;3302;52.508;13.454;2023-07-29T07:51:21;21.40;99.90
6538;DHT22;3302;52.508;13.454;2023-07-29T07:53:48;21.50;99.90
6538;DHT22;3302;52.508;13.454;2023-07-29T07:56:14;21.50;99.90
6538;DHT22;3302;52.508;13.454;2023-07-29T07:58:40;21.30;99.90
6538;DHT22;3302;52.508;13.454;2023-07-29T08:01:08;21.20;99.90
6538;DHT22;3302;52.508;13.454;2023-07-29T08:03:35;21.40;99.90
6538;DHT22;3302;52.508;13.454;2023-07-29T08:06:02;21.40;99.90
6538;DHT22;3302;52.508;13.454;2023-07-29T08:08:28;21.20;99.90
6538;DHT22;3302;52.508;13.454;2023-07-29T08:10:55;21.50;99.90
6538;DHT22;3302;52.508;13.454;2023-07-29T08:13:24;21.70;99.90
6538;DHT22;3302;52.508;13.454;2023-07-29T08:15:52;21.90;99.90
6538;DHT22;3302;52.508;13.454;2023-07-29T08:18:19;21.90;99.90
6538;DHT22;3302;52.508;13.454;2023-07-29T08:23:18;21.80;99.90
6538;DHT22;3302;52.508;13.454;2023-07-29T08:25:44;21.70;99.90
6538;DHT22;3302;52.508;13.454;2023-07-29T08:28:10;21.80;99.90
6538;DHT22;3302;52.508;13.454;2023-07-29T08:30:36;21.90;99.90
6538;DHT22;3302;52.508;13.454;2023-07-29T08:33:02;22.10;99.90
6538;DHT22;3302;52.508;13.454;2023-07-29T08:35:28;22.10;99.90
6538;DHT22;3302;52.508;13.454;2023-07-29T08:37:54;22.20;99.90
6538;DHT22;3302;52.508;13.454;2023-07-29T08:40:24;22.30;99.90
6538;DHT22;3302;52.508;13.454;2023-07-29T08:42:54;22.20;99.90
6538;DHT22;3302;52.508;13.454;2023-07-29T08:45:21;22.20;99.90
6538;DHT22;3302;52.508;13.454;2023-07-29T08:47:48;22.50;99.90
6538;DHT22;3302;52.508;13.454;2023-07-29T08:50:15;22.70;99.90
6538;DHT22;3302;52.508;13.454;2023-07-29T08:52:42;22.70;99.90
6538;DHT22;3302;52.508;13.454;2023-07-29T08:55:10;22.60;99.90
6538;DHT22;3302;52.508;13.454;2023-07-29T08:57:36;22.50;99.90
6538;DHT22;3302;52.508;13.454;2023-07-29T09:00:03;22.40;99.90
6538;DHT22;3302;52.508;13.454;2023-07-29T09:02:31;22.40;99.90
6538;DHT22;3302;52.508;13.454;2023-07-29T09:04:57;22.40;99.90
6538;DHT22;3302;52.508;13.454;2023-07-29T09:07:23;22.40;99.90
6538;DHT22;3302;52.508;13.454;2023-07-29T09:09:49;22.40;99.90
6538;DHT22;3302;52.508;13.454;2023-07-29T09:12:14;22.60;99.90
6538;DHT22;3302;52.508;13.454;2023-07-29T09:14:40;22.60;99.90
6538;DHT22;3302;52.508;13.454;2023-07-29T09:17:08;22.80;99.90
6538;DHT22;3302;52.508;13.454;2023-07-29T09:19:34;22.70;99.90
6538;DHT22;3302;52.508;13.454;2023-07-29T09:22:00;22.80;99.90
6538;DHT22;3302;52.508;13.454;2023-07-29T09:24:26;22.70;99.90
6538;DHT22;3302;52.508;13.454;2023-07-29T09:26:55;22.70;99.90
6538;DHT22;3302;52.508;13.454;2023-07-29T09:29:28;23.00;99.90
6538;DHT22;3302;52.508;13.454;2023-07-29T09:32:18;22.90;99.90
6538;DHT22;3302;52.508;13.454;2023-07-29T09:34:44;22.90;99.90
6538;DHT22;3302;52.508;13.454;2023-07-29T09:37:21;23.00;99.90
6538;DHT22;3302;52.508;13.454;2023-07-29T09:39:48;23.10;99.90
6538;DHT22;3302;52.508;13.454;2023-07-29T09:42:22;23.00;99.90
6538;DHT22;3302;52.508;13.454;2023-07-29T09:44:51;23.30;99.90
6538;DHT22;3302;52.508;13.454;2023-07-29T09:47:21;23.60;99.90
6538;DHT22;3302;52.508;13.454;2023-07-29T09:49:47;23.60;99.90
6538;DHT22;3302;52.508;13.454;2023-07-29T09:52:17;23.60;99.90
6538;DHT22;3302;52.508;13.454;2023-07-29T09:54:44;23.40;99.90
6538;DHT22;3302;52.508;13.454;2023-07-29T09:57:12;23.40;99.90
6538;DHT22;3302;52.508;13.454;2023-07-29T09:59:39;23.20;99.90
6538;DHT22;3302;52.508;13.454;2023-07-29T10:02:08;23.10;99.90
6538;DHT22;3302;52.508;13.454;2023-07-29T10:04:35;23.30;99.90
6538;DHT22;3302;52.508;13.454;2023-07-29T10:07:02;23.50;99.90
6538;DHT22;3302;52.508;13.454;2023-07-29T10:09:28;23.60;99.90
6538;DHT22;3302;52.508;13.454;2023-07-29T10:11:54;23.80;99.90
6538;DHT22;3302;52.508;13.454;2023-07-29T10:14:20;23.70;99.90
6538;DHT22;3302;52.508;13.454;2023-07-29T10:16:47;23.90;99.90
6538;DHT22;3302;52.508;13.454;2023-07-29T10:19:14;23.70;99.90
6538;DHT22;3302;52.508;13.454;2023-07-29T10:21:44;23.80;99.90
6538;DHT22;3302;52.508;13.454;2023-07-29T10:24:17;23.80;99.90
6538;DHT22;3302;52.508;13.454;2023-07-29T10:26:46;23.70;99.90
6538;DHT22;3302;52.508;13.454;2023-07-29T10:29:13;23.80;99.90
6538;DHT22;3302;52.508;13.454;2023-07-29T10:31:43;23.70;99.90
6538;DHT22;3302;52.508;13.454;2023-07-29T10:34:09;23.90;99.90
6538;DHT22;3302;52.508;13.454;2023-07-29T10:36:36;23.90;99.90
6538;DHT22;3302;52.508;13.454;2023-07-29T10:39:02;23.80;99.90
6538;DHT22;3302;52.508;13.454;2023-07-29T10:41:58;23.70;99.90
6538;DHT22;3302;52.508;13.454;2023-07-29T10:47:26;23.60;99.90
6538;DHT22;3302;52.508;13.454;2023-07-29T10:49:57;23.80;99.90
6538;DHT22;3302;52.508;13.454;2023-07-29T10:55:02;23.80;99.90
6538;DHT22;3302;52.508;13.454;2023-07-29T10:57:37;23.70;99.90
6538;DHT22;3302;52.508;13.454;2023-07-29T11:00:05;23.80;99.90
6538;DHT22;3302;52.508;13.454;2023-07-29T11:02:33;23.80;99.90
6538;DHT22;3302;52.508;13.454;2023-07-29T11:05:06;23.70;99.90
6538;DHT22;3302;52.508;13.454;2023-07-29T11:07:46;23.50;99.90
6538;DHT22;3302;52.508;13.454;2023-07-29T11:10:13;23.50;99.90
6538;DHT22;3302;52.508;13.454;2023-07-29T11:12:49;23.60;99.90
6538;DHT22;3302;52.508;13.454;2023-07-29T11:15:27;23.50;99.90
6538;DHT22;3302;52.508;13.454;2023-07-29T11:17:59;23.50;99.90
6538;DHT22;3302;52.508;13.454;2023-07-29T11:20:32;23.40;99.90
6538;DHT22;3302;52.508;13.454;2023-07-29T11:23:00;23.30;99.90
6538;DHT22;3302;52.508;13.454;2023-07-29T11:25:29;22.30;99.90
6538;DHT22;3302;52.508;13.454;2023-07-29T11:27:56;19.70;99.90
6538;DHT22;3302;52.508;13.454;2023-07-29T11:30:23;18.90;99.90
6538;DHT22;3302;52.508;13.454;2023-07-29T11:32:53;18.70;99.90
6538;DHT22;3302;52.508;13.454;2023-07-29T11:35:19;18.90;99.90
6538;DHT22;3302;52.508;13.454;2023-07-29T11:37:50;19.10;99.90
6538;DHT22;3302;52.508;13.454;2023-07-29T11:40:20;19.10;99.90
6538;DHT22;3302;52.508;13.454;2023-07-29T11:42:48;19.30;99.90
6538;DHT22;3302;52.508;13.454;2023-07-29T11:45:16;18.90;99.90
6538;DHT22;3302;52.508;13.454;2023-07-29T11:47:42;19.10;99.90
6538;DHT22;3302;52.508;13.454;2023-07-29T11:50:09;19.30;99.90
6538;DHT22;3302;52.508;13.454;2023-07-29T11:52:37;19.30;99.90
6538;DHT22;3302;52.508;13.454;2023-07-29T11:55:04;19.30;99.90
6538;DHT22;3302;52.508;13.454;2023-07-29T11:57:30;19.20;99.90
6538;DHT22;3302;52.508;13.454;2023-07-29T11:59:57;19.40;99.90
6538;DHT22;3302;52.508;13.454;2023-07-29T12:02:24;19.30;99.90
6538;DHT22;3302;52.508;13.454;2023-07-29T12:04:51;19.40;99.90
6538;DHT22;3302;52.508;13.454;2023-07-29T12:07:18;19.30;99.90
6538;DHT22;3302;52.508;13.454;2023-07-29T12:09:45;19.30;99.90
6538;DHT22;3302;52.508;13.454;2023-07-29T12:12:11;19.30;99.90
6538;DHT22;3302;52.508;13.454;2023-07-29T12:14:37;18.90;99.90
6538;DHT22;3302;52.508;13.454;2023-07-29T12:17:05;19.00;99.90
6538;DHT22;3302;52.508;13.454;2023-07-29T12:19:32;19.00;99.90
6538;DHT22;3302;52.508;13.454;2023-07-29T12:22:00;19.10;99.90
6538;DHT22;3302;52.508;13.454;2023-07-29T12:24:26;19.10;99.90
6538;DHT22;3302;52.508;13.454;2023-07-29T12:26:52;19.10;99.90
6538;DHT22;3302;52.508;13.454;2023-07-29T12:29:19;19.10;99.90
6538;DHT22;3302;52.508;13.454;2023-07-29T12:31:49;19.10;99.90
6538;DHT22;3302;52.508;13.454;2023-07-29T12:34:21;19.30;99.90
6538;DHT22;3302;52.508;13.454;2023-07-29T12:36:49;19.30;99.90
6538;DHT22;3302;52.508;13.454;2023-07-29T12:39:18;19.30;99.90
6538;DHT22;3302;52.508;13.454;2023-07-29T12:41:45;19.40;99.90
6538;DHT22;3302;52.508;13.454;2023-07-29T12:44:11;19.20;99.90
6538;DHT22;3302;52.508;13.454;2023-07-29T12:46:38;19.30;99.90
6538;DHT22;3302;52.508;13.454;2023-07-29T12:49:04;19.50;99.90
6538;DHT22;3302;52.508;13.454;2023-07-29T12:51:30;19.70;99.90
6538;DHT22;3302;52.508;13.454;2023-07-29T12:53:56;19.60;99.90
6538;DHT22;3302;52.508;13.454;2023-07-29T12:56:22;19.70;99.90
6538;DHT22;3302;52.508;13.454;2023-07-29T12:58:47;19.70;99.90
6538;DHT22;3302;52.508;13.454;2023-07-29T13:01:14;19.90;99.90
6538;DHT22;3302;52.508;13.454;2023-07-29T13:03:44;20.10;99.90
6538;DHT22;3302;52.508;13.454;2023-07-29T13:06:09;20.30;99.90
6538;DHT22;3302;52.508;13.454;2023-07-29T13:08:35;20.40;99.90
6538;DHT22;3302;52.508;13.454;2023-07-29T13:11:01;20.70;99.90
6538;DHT22;3302;52.508;13.454;2023-07-29T13:13:27;20.70;99.90
6538;DHT22;3302;52.508;13.454;2023-07-29T13:15:53;20.60;99.90
6538;DHT22;3302;52.508;13.454;2023-07-29T13:18:19;20.60;99.90
6538;DHT22;3302;52.508;13.454;2023-07-29T13:20:44;20.70;99.90
6538;DHT22;3302;52.508;13.454;2023-07-29T13:23:10;20.80;99.90
6538;DHT22;3302;52.508;13.454;2023-07-29T13:25:36;20.70;99.90
6538;DHT22;3302;52.508;13.454;2023-07-29T13:28:02;20.80;99.90
6538;DHT22;3302;52.508;13.454;2023-07-29T13:30:27;20.80;99.90
6538;DHT22;3302;52.508;13.454;2023-07-29T13:32:53;21.00;99.90
6538;DHT22;3302;52.508;13.454;2023-07-29T13:35:19;21.10;99.90
6538;DHT22;3302;52.508;13.454;2023-07-29T13:37:45;21.10;99.90
6538;DHT22;3302;52.508;13.454;2023-07-29T13:40:11;21.30;99.90
6538;DHT22;3302;52.508;13.454;2023-07-29T13:42:36;21.50;99.90
6538;DHT22;3302;52.508;13.454;2023-07-29T13:45:02;21.70;99.90
6538;DHT22;3302;52.508;13.454;2023-07-29T13:47:28;21.90;99.90
6538;DHT22;3302;52.508;13.454;2023-07-29T13:49:54;22.10;99.90
6538;DHT22;3302;52.508;13.454;2023-07-29T13:52:20;22.40;99.90
6538;DHT22;3302;52.508;13.454;2023-07-29T13:54:45;22.10;99.90
6538;DHT22;3302;52.508;13.454;2023-07-29T13:57:11;22.20;99.90
6538;DHT22;3302;52.508;13.454;2023-07-29T13:59:37;22.40;99.90
6538;DHT22;3302;52.508;13.454;2023-07-29T14:02:06;22.40;99.90
6538;DHT22;3302;52.508;13.454;2023-07-29T14:04:32;22.40;99.90
6538;DHT22;3302;52.508;13.454;2023-07-29T14:06:58;22.30;99.90
6538;DHT22;3302;52.508;13.454;2023-07-29T14:09:25;22.30;99.90
6538;DHT22;3302;52.508;13.454;2023-07-29T14:11:51;22.50;99.90
6538;DHT22;3302;52.508;13.454;2023-07-29T14:14:17;22.80;99.90
6538;DHT22;3302;52.508;13.454;2023-07-29T14:16:43;22.90;99.90
6538;DHT22;3302;52.508;13.454;2023-07-29T14:19:08;22.90;99.90
6538;DHT22;3302;52.508;13.454;2023-07-29T14:21:34;23.10;99.90
6538;DHT22;3302;52.508;13.454;2023-07-29T14:24:00;22.90;99.90
6538;DHT22;3302;52.508;13.454;2023-07-29T14:26:26;22.80;99.90
6538;DHT22;3302;52.508;13.454;2023-07-29T14:28:52;22.80;99.90
6538;DHT22;3302;52.508;13.454;2023-07-29T14:31:18;22.90;99.90
6538;DHT22;3302;52.508;13.454;2023-07-29T14:33:44;23.00;99.90
6538;DHT22;3302;52.508;13.454;2023-07-29T14:36:10;22.80;99.90
6538;DHT22;3302;52.508;13.454;2023-07-29T14:38:36;22.80;99.90
6538;DHT22;3302;52.508;13.454;2023-07-29T14:41:03;22.80;99.90
6538;DHT22;3302;52.508;13.454;2023-07-29T14:43:30;22.90;99.90
6538;DHT22;3302;52.508;13.454;2023-07-29T14:45:56;22.80;99.90
6538;DHT22;3302;52.508;13.454;2023-07-29T14:48:23;22.80;99.90
6538;DHT22;3302;52.508;13.454;2023-07-29T14:50:49;22.70;99.90
6538;DHT22;3302;52.508;13.454;2023-07-29T14:53:14;22.70;99.90
6538;DHT22;3302;52.508;13.454;2023-07-29T14:55:40;22.80;99.90
6538;DHT22;3302;52.508;13.454;2023-07-29T14:58:06;22.90;99.90
6538;DHT22;3302;52.508;13.454;2023-07-29T15:00:32;22.90;99.90
6538;DHT22;3302;52.508;13.454;2023-07-29T15:02:59;22.90;99.90
6538;DHT22;3302;52.508;13.454;2023-07-29T15:05:24;22.90;99.90
6538;DHT22;3302;52.508;13.454;2023-07-29T15:07:50;22.80;99.90
6538;DHT22;3302;52.508;13.454;2023-07-29T15:10:17;22.80;99.90
6538;DHT22;3302;52.508;13.454;2023-07-29T15:12:43;22.80;99.90
6538;DHT22;3302;52.508;13.454;2023-07-29T15:15:11;22.70;99.90
6538;DHT22;3302;52.508;13.454;2023-07-29T15:17:37;22.80;99.90
6538;DHT22;3302;52.508;13.454;2023-07-29T15:20:03;22.70;99.90
6538;DHT22;3302;52.508;13.454;2023-07-29T15:22:30;22.70;99.90
6538;DHT22;3302;52.508;13.454;2023-07-29T15:24:58;22.70;99.90
6538;DHT22;3302;52.508;13.454;2023-07-29T15:27:27;22.60;99.90
6538;DHT22;3302;52.508;13.454;2023-07-29T15:29:53;22.60;99.90
6538;DHT22;3302;52.508;13.454;2023-07-29T15:32:19;22.60;99.90
6538;DHT22;3302;52.508;13.454;2023-07-29T15:34:45;22.50;99.90
6538;DHT22;3302;52.508;13.454;2023-07-29T15:37:11;22.50;99.90
6538;DHT22;3302;52.508;13.454;2023-07-29T15:39:37;22.40;99.90
6538;DHT22;3302;52.508;13.454;2023-07-29T15:42:03;22.40;99.90
6538;DHT22;3302;52.508;13.454;2023-07-29T15:44:28;22.10;99.90
6538;DHT22;3302;52.508;13.454;2023-07-29T15:46:54;20.50;99.90
6538;DHT22;3302;52.508;13.454;2023-07-29T15:49:22;17.90;99.90
6538;DHT22;3302;52.508;13.454;2023-07-29T15:51:48;17.90;99.90
6538;DHT22;3302;52.508;13.454;2023-07-29T15:54:14;17.60;99.90
6538;DHT22;3302;52.508;13.454;2023-07-29T15:56:40;17.40;99.90
6538;DHT22;3302;52.508;13.454;2023-07-29T15:59:07;17.10;99.90